Time,TemperatureF,DewpointF,PressureIn,WindDirection,WindDirectionDegrees,WindSpeedMPH,WindSpeedGustMPH,Humidity,HourlyPrecipIn,Conditions,Clouds,dailyrainin,SoftwareType,DateUTC
2016-02-10 00:00:00,54.4,31.8,30.05,NNW,347,0.0,0.0,42,0.00,,---,0.00,VWS V15.00,2016-02-10 08:00:00,
2016-02-10 00:01:00,54.4,31.8,30.05,NNW,347,0.0,0.0,42,0.00,,---,0.00,VWS V15.00,2016-02-10 08:01:00,
2016-02-10 00:06:00,54.2,32.2,30.05,NNW,347,0.0,0.0,43,0.00,,---,0.00,VWS V15.00,2016-02-10 08:06:00,
2016-02-10 00:11:00,53.9,31.9,30.05,NNW,347,0.0,0.0,43,0.00,,---,0.00,VWS V15.00,2016-02-10 08:11:00,
2016-02-10 00:16:00,53.9,32.5,30.05,NNW,347,0.0,0.0,44,0.00,,---,0.00,VWS V15.00,2016-02-10 08:16:00,
2016-02-10 00:21:00,53.8,31.3,30.05,NNW,347,0.0,0.0,42,0.00,,---,0.00,VWS V15.00,2016-02-10 08:21:00,
2016-02-10 00:26:00,53.8,30.7,30.05,NNW,347,0.0,0.0,41,0.00,,---,0.00,VWS V15.00,2016-02-10 08:26:00,
2016-02-10 00:30:00,53.6,31.1,30.05,NNW,347,0.0,0.0,42,0.00,,---,0.00,VWS V15.00,2016-02-10 08:30:00,
2016-02-10 00:31:00,53.6,31.1,30.05,NNW,347,0.0,0.0,42,0.00,,---,0.00,VWS V15.00,2016-02-10 08:31:00,
2016-02-10 00:36:00,53.5,31.0,30.05,NNW,347,0.0,0.0,42,0.00,,---,0.00,VWS V15.00,2016-02-10 08:36:00,
2016-02-10 00:41:00,53.5,31.0,30.05,NNW,347,0.0,0.0,42,0.00,,---,0.00,VWS V15.00,2016-02-10 08:41:00,
2016-02-10 00:46:00,53.3,30.8,30.05,NNW,347,0.0,0.0,42,0.00,,---,0.00,VWS V15.00,2016-02-10 08:46:00,
2016-02-10 00:51:00,53.2,31.3,30.05,NNW,347,0.0,0.0,43,0.00,,---,0.00,VWS V15.00,2016-02-10 08:51:00,
2016-02-10 00:58:00,53.1,31.2,30.05,NNW,347,0.0,0.0,43,0.00,,---,0.00,VWS V15.00,2016-02-10 08:58:00,
2016-02-10 01:00:00,52.9,31.0,30.05,NNW,347,0.0,0.0,43,0.00,,---,0.00,VWS V15.00,2016-02-10 09:00:00,
2016-02-10 01:03:00,52.9,31.0,30.05,NNW,347,0.0,0.0,43,0.00,,---,0.00,VWS V15.00,2016-02-10 09:03:00,
2016-02-10 01:08:00,52.8,30.9,30.05,NNW,347,0.0,0.0,43,0.00,,---,0.00,VWS V15.00,2016-02-10 09:08:00,
2016-02-10 01:13:00,52.6,30.8,30.05,NNW,347,0.0,0.0,43,0.00,,---,0.00,VWS V15.00,2016-02-10 09:13:00,
2016-02-10 01:18:00,52.5,30.7,30.05,NNW,347,0.0,0.0,43,0.00,,---,0.00,VWS V15.00,2016-02-10 09:18:00,
2016-02-10 01:23:00,52.3,31.0,30.05,NNW,347,0.0,0.0,44,0.00,,---,0.00,VWS V15.00,2016-02-10 09:23:00,
2016-02-10 01:28:00,52.3,31.6,30.05,NNW,347,0.0,0.0,45,0.00,,---,0.00,VWS V15.00,2016-02-10 09:28:00,
2016-02-10 01:30:00,52.2,31.5,30.05,NNW,347,0.0,0.0,45,0.00,,---,0.00,VWS V15.00,2016-02-10 09:30:00,
2016-02-10 01:33:00,52.2,32.1,30.05,NNW,347,0.0,0.0,46,0.00,,---,0.00,VWS V15.00,2016-02-10 09:33:00,
2016-02-10 01:38:00,52.2,32.1,30.05,NNW,347,0.0,0.0,46,0.00,,---,0.00,VWS V15.00,2016-02-10 09:38:00,
2016-02-10 01:43:00,52.0,31.3,30.05,NNW,347,0.0,0.0,45,0.00,,---,0.00,VWS V15.00,2016-02-10 09:43:00,
2016-02-10 01:48:00,52.2,31.5,30.05,NNW,347,0.0,0.0,45,0.00,,---,0.00,VWS V15.00,2016-02-10 09:48:00,
2016-02-10 01:53:00,52.0,30.8,30.05,NNW,347,0.0,0.0,44,0.00,,---,0.00,VWS V15.00,2016-02-10 09:53:00,
2016-02-10 01:58:00,52.0,31.3,30.05,NNW,347,0.0,0.0,45,0.00,,---,0.00,VWS V15.00,2016-02-10 09:58:00,
2016-02-10 02:00:00,51.9,31.2,30.05,NNW,347,0.0,0.0,45,0.00,,---,0.00,VWS V15.00,2016-02-10 10:00:00,
2016-02-10 02:03:00,51.9,31.2,30.05,NNW,347,0.0,0.0,45,0.00,,---,0.00,VWS V15.00,2016-02-10 10:03:00,
2016-02-10 02:08:00,51.7,32.1,30.05,NNW,347,0.0,0.0,47,0.00,,---,0.00,VWS V15.00,2016-02-10 10:08:00,
2016-02-10 02:13:00,51.7,32.1,30.05,NNW,347,0.0,0.0,47,0.00,,---,0.00,VWS V15.00,2016-02-10 10:13:00,
2016-02-10 02:18:00,51.6,32.0,30.05,NNW,347,0.0,0.0,47,0.00,,---,0.00,VWS V15.00,2016-02-10 10:18:00,
2016-02-10 02:28:00,51.6,32.0,30.05,NNW,347,0.0,0.0,47,0.00,,---,0.00,VWS V15.00,2016-02-10 10:28:00,
2016-02-10 02:30:00,51.4,31.9,30.05,NNW,347,0.0,0.0,47,0.00,,---,0.00,VWS V15.00,2016-02-10 10:30:00,
2016-02-10 02:33:00,51.4,31.9,30.05,NNW,347,0.0,0.0,47,0.00,,---,0.00,VWS V15.00,2016-02-10 10:33:00,
2016-02-10 02:43:00,51.4,31.9,30.05,NNW,347,0.0,0.0,47,0.00,,---,0.00,VWS V15.00,2016-02-10 10:43:00,
2016-02-10 02:48:00,51.4,31.9,30.05,NNW,347,0.0,0.0,47,0.00,,---,0.00,VWS V15.00,2016-02-10 10:48:00,
2016-02-10 02:58:00,51.1,31.6,30.05,NNW,347,0.0,0.0,47,0.00,,---,0.00,VWS V15.00,2016-02-10 10:58:00,
2016-02-10 03:00:00,50.8,31.8,30.04,NNW,347,0.0,0.0,48,0.00,,---,0.00,VWS V15.00,2016-02-10 11:00:00,
2016-02-10 03:03:00,50.8,31.8,30.04,NNW,347,0.0,0.0,48,0.00,,---,0.00,VWS V15.00,2016-02-10 11:03:00,
2016-02-10 03:08:00,50.7,31.7,30.04,NNW,347,0.0,0.0,48,0.00,,---,0.00,VWS V15.00,2016-02-10 11:08:00,
2016-02-10 03:13:00,50.5,31.6,30.04,NNW,347,0.0,0.0,48,0.00,,---,0.00,VWS V15.00,2016-02-10 11:13:00,
2016-02-10 03:18:00,50.5,31.6,30.04,NNW,347,0.0,0.0,48,0.00,,---,0.00,VWS V15.00,2016-02-10 11:18:00,
2016-02-10 03:23:00,50.5,31.0,30.04,NNW,347,0.0,0.0,47,0.00,,---,0.00,VWS V15.00,2016-02-10 11:23:00,
2016-02-10 03:28:00,50.7,31.2,30.04,NNW,347,0.0,0.0,47,0.00,,---,0.00,VWS V15.00,2016-02-10 11:28:00,
2016-02-10 03:30:00,50.5,31.0,30.04,NNW,347,0.0,0.0,47,0.00,,---,0.00,VWS V15.00,2016-02-10 11:30:00,
2016-02-10 03:33:00,50.5,31.0,30.04,NNW,347,0.0,0.0,47,0.00,,---,0.00,VWS V15.00,2016-02-10 11:33:00,
2016-02-10 03:38:00,50.4,31.0,30.04,NNW,347,0.0,0.0,47,0.00,,---,0.00,VWS V15.00,2016-02-10 11:38:00,
2016-02-10 03:43:00,50.4,31.0,30.04,NNW,347,0.0,0.0,47,0.00,,---,0.00,VWS V15.00,2016-02-10 11:43:00,
2016-02-10 03:48:00,50.4,31.0,30.04,NNW,347,0.0,0.0,47,0.00,,---,0.00,VWS V15.00,2016-02-10 11:48:00,
2016-02-10 03:53:00,50.2,31.3,30.04,NNW,347,0.0,0.0,48,0.00,,---,0.00,VWS V15.00,2016-02-10 11:53:00,
2016-02-10 03:58:00,50.1,31.2,30.04,NNW,347,0.0,0.0,48,0.00,,---,0.00,VWS V15.00,2016-02-10 11:58:00,
2016-02-10 04:00:00,49.9,31.0,30.04,NNW,347,0.0,0.0,48,0.00,,---,0.00,VWS V15.00,2016-02-10 12:00:00,
2016-02-10 04:30:00,49.5,31.1,30.05,North,0,0.0,0.0,49,0.00,,---,0.00,VWS V15.00,2016-02-10 12:30:00,
2016-02-10 05:00:00,49.5,31.1,30.05,North,0,0.0,0.0,49,0.00,,---,0.00,VWS V15.00,2016-02-10 13:00:00,
2016-02-10 05:30:00,48.8,32.0,30.07,North,0,0.0,0.0,52,0.00,,---,0.00,VWS V15.00,2016-02-10 13:30:00,
2016-02-10 06:00:00,47.9,31.6,30.07,North,0,0.0,0.0,53,0.00,,---,0.00,VWS V15.00,2016-02-10 14:00:00,
2016-02-10 06:30:00,47.7,31.0,30.08,North,0,0.0,0.0,52,0.00,,---,0.00,VWS V15.00,2016-02-10 14:30:00,
2016-02-10 07:00:00,47.9,33.4,30.08,North,0,0.0,0.0,57,0.00,,---,0.00,VWS V15.00,2016-02-10 15:00:00,
2016-02-10 07:34:00,47.9,33.4,30.08,North,0,0.0,0.0,57,0.00,,---,0.00,VWS V15.00,2016-02-10 15:34:00,
2016-02-10 07:39:00,48.6,33.2,30.09,NNW,347,0.0,0.0,55,0.00,,---,0.00,VWS V15.00,2016-02-10 15:39:00,
2016-02-10 07:49:00,48.9,33.5,30.09,NNW,347,0.0,0.0,55,0.00,,---,0.00,VWS V15.00,2016-02-10 15:49:00,
2016-02-10 07:54:00,49.8,33.4,30.09,NNW,347,0.0,0.0,53,0.00,,---,0.00,VWS V15.00,2016-02-10 15:54:00,
2016-02-10 07:59:00,50.5,33.5,30.09,NNW,347,0.0,0.0,52,0.00,,---,0.00,VWS V15.00,2016-02-10 15:59:00,
2016-02-10 08:04:00,51.1,33.6,30.09,NNW,347,0.0,0.0,51,0.00,,---,0.00,VWS V15.00,2016-02-10 16:04:00,
2016-02-10 08:09:00,52.0,34.5,30.09,NNW,347,0.0,0.0,51,0.00,,---,0.00,VWS V15.00,2016-02-10 16:09:00,
2016-02-10 08:14:00,52.0,34.5,30.09,NNW,347,0.0,0.0,51,0.00,,---,0.00,VWS V15.00,2016-02-10 16:14:00,
2016-02-10 08:19:00,53.5,34.3,30.10,NNW,347,0.0,0.0,48,0.00,,---,0.00,VWS V15.00,2016-02-10 16:19:00,
2016-02-10 08:24:00,55.0,35.7,30.10,NNW,347,0.0,0.0,48,0.00,,---,0.00,VWS V15.00,2016-02-10 16:24:00,
2016-02-10 08:29:00,55.9,36.0,30.10,NNW,347,0.0,0.0,47,0.00,,---,0.00,VWS V15.00,2016-02-10 16:29:00,
2016-02-10 08:34:00,56.9,36.3,30.10,NNW,347,0.0,0.0,46,0.00,,---,0.00,VWS V15.00,2016-02-10 16:34:00,
2016-02-10 08:39:00,58.1,36.9,30.10,NNW,347,0.0,0.0,45,0.00,,---,0.00,VWS V15.00,2016-02-10 16:39:00,
2016-02-10 08:44:00,58.9,37.0,30.10,NNW,347,0.0,0.0,44,0.00,,---,0.00,VWS V15.00,2016-02-10 16:44:00,
2016-02-10 08:49:00,60.2,37.0,30.10,NNW,347,0.0,0.0,42,0.00,,---,0.00,VWS V15.00,2016-02-10 16:49:00,
2016-02-10 08:54:00,61.3,37.4,30.10,NNW,347,0.0,0.0,41,0.00,,---,0.00,VWS V15.00,2016-02-10 16:54:00,
2016-02-10 08:59:00,62.4,37.8,30.10,NNW,347,0.0,0.0,40,0.00,,---,0.00,VWS V15.00,2016-02-10 16:59:00,
2016-02-10 09:04:00,63.5,36.8,30.10,NNW,347,0.0,0.0,37,0.00,,---,0.00,VWS V15.00,2016-02-10 17:04:00,
2016-02-10 09:14:00,65.2,38.3,30.10,NNW,347,0.0,0.0,37,0.00,,---,0.00,VWS V15.00,2016-02-10 17:14:00,
2016-02-10 09:19:00,66.3,33.1,30.10,NNW,347,0.0,0.0,29,0.00,,---,0.00,VWS V15.00,2016-02-10 17:19:00,
2016-02-10 09:24:00,67.1,32.0,30.10,NNW,347,0.0,0.0,27,0.00,,---,0.00,VWS V15.00,2016-02-10 17:24:00,
2016-02-10 09:29:00,67.8,32.6,30.10,North,0,0.0,1.0,27,0.00,,---,0.00,VWS V15.00,2016-02-10 17:29:00,
2016-02-10 09:34:00,68.8,32.5,30.09,North,0,0.0,0.0,26,0.00,,---,0.00,VWS V15.00,2016-02-10 17:34:00,
2016-02-10 09:39:00,69.6,32.2,30.09,North,0,0.0,0.0,25,0.00,,---,0.00,VWS V15.00,2016-02-10 17:39:00,
2016-02-10 09:44:00,70.3,31.8,30.09,North,0,0.0,0.0,24,0.00,,---,0.00,VWS V15.00,2016-02-10 17:44:00,
2016-02-10 09:49:00,70.9,31.3,30.09,North,0,0.0,0.0,23,0.00,,---,0.00,VWS V15.00,2016-02-10 17:49:00,
2016-02-10 09:54:00,71.5,30.7,30.09,North,0,0.0,0.0,22,0.00,,---,0.00,VWS V15.00,2016-02-10 17:54:00,
2016-02-10 09:59:00,72.3,31.4,30.09,North,0,0.0,0.0,22,0.00,,---,0.00,VWS V15.00,2016-02-10 17:59:00,
2016-02-10 10:04:00,73.0,30.8,30.09,North,359,0.0,1.0,21,0.00,,---,0.00,VWS V15.00,2016-02-10 18:04:00,
2016-02-10 10:09:00,73.9,26.4,30.09,WNW,302,0.0,1.0,17,0.00,,---,0.00,VWS V15.00,2016-02-10 18:09:00,
2016-02-10 10:14:00,74.6,27.0,30.09,WNW,302,0.0,1.0,17,0.00,,---,0.00,VWS V15.00,2016-02-10 18:14:00,
2016-02-10 10:19:00,75.1,28.7,30.09,WNW,302,0.0,1.0,18,0.00,,---,0.00,VWS V15.00,2016-02-10 18:19:00,
2016-02-10 10:24:00,75.3,27.5,30.09,WNW,302,0.0,1.0,17,0.00,,---,0.00,VWS V15.00,2016-02-10 18:24:00,
2016-02-10 10:29:00,75.8,26.5,30.09,WNW,302,0.0,1.0,16,0.00,,---,0.00,VWS V15.00,2016-02-10 18:29:00,